Time;durP1;ratioP1;P1;durP2;ratioP2;P2;SDS_P1;SDS_P2;PMS_P1;PMS_P2;Temp;Humidity;BMP_temperature;BMP_pressure;BME280_temperature;BME280_humidity;BME280_pressure;Samples;Min_cycle;Max_cycle;Signal;HPM_P1;HPM_P2
2023/07/15 10:36:50;;;;;;;13.40;2.70;;;29.10;53.10;;;;;;5129136;27;20379;-81
2023/07/15 10:39:17;;;;;;;13.00;2.72;;;29.30;51.40;;;;;;5108705;28;20024;-81
2023/07/15 10:41:53;;;;;;;12.45;3.40;;;28.00;50.10;;;;;;5107198;28;20027;-81
2023/07/15 10:44:23;;;;;;;11.82;2.67;;;26.10;55.10;;;;;;5107178;28;20016;-81
2023/07/15 10:46:58;;;;;;;14.35;3.17;;;25.10;60.60;;;;;;5106269;28;20035;-80
2023/07/15 10:49:24;;;;;;;11.63;3.33;;;24.50;64.10;;;;;;5108285;28;20091;-81
2023/07/15 10:51:54;;;;;;;9.35;2.75;;;25.70;61.70;;;;;;5108284;28;20111;-80
2023/07/15 10:54:24;;;;;;;10.53;2.03;;;26.90;58.70;;;;;;5108352;28;20012;-80
2023/07/15 10:56:50;;;;;;;10.00;2.87;;;27.40;57.00;;;;;;5107042;28;20357;-80
2023/07/15 10:59:16;;;;;;;9.10;2.20;;;28.60;53.50;;;;;;5108533;28;20268;-81
2023/07/15 11:01:43;;;;;;;11.63;2.30;;;29.00;51.40;;;;;;5101048;28;20024;-82
2023/07/15 11:04:09;;;;;;;13.07;2.10;;;28.80;50.00;;;;;;5119682;22;20135;-84
2023/07/15 11:06:35;;;;;;;13.95;2.50;;;29.50;51.70;;;;;;5087116;28;20107;-83
2023/07/15 11:09:21;;;;;;;11.98;2.60;;;29.50;48.70;;;;;;5106849;28;20025;-84
2023/07/15 11:11:48;;;;;;;11.52;2.60;;;30.50;46.40;;;;;;5092448;28;20115;-83
2023/07/15 11:14:28;;;;;;;12.98;3.03;;;30.70;47.60;;;;;;5106711;28;20022;-83
2023/07/15 11:16:55;;;;;;;12.68;2.80;;;30.80;46.30;;;;;;5107356;28;20039;-83
2023/07/15 11:19:23;;;;;;;9.13;2.28;;;31.00;46.20;;;;;;5107107;28;20031;-83
2023/07/15 11:21:51;;;;;;;9.85;2.97;;;30.50;46.20;;;;;;5107605;28;20027;-84
2023/07/15 11:24:20;;;;;;;9.52;2.90;;;30.00;47.20;;;;;;5107404;28;20096;-84
2023/07/15 11:26:46;;;;;;;12.38;2.08;;;29.60;46.10;;;;;;5107565;28;20020;-86
2023/07/15 11:29:17;;;;;;;14.43;3.00;;;29.10;46.90;;;;;;5107901;28;20529;-84
2023/07/15 11:31:48;;;;;;;11.30;2.28;;;28.50;49.00;;;;;;5099424;28;20388;-83
2023/07/15 11:34:18;;;;;;;7.43;2.20;;;28.10;47.90;;;;;;5093582;28;20819;-83
2023/07/15 11:36:46;;;;;;;8.93;2.20;;;28.40;48.20;;;;;;5106603;28;20576;-84
2023/07/15 11:39:12;;;;;;;12.77;2.90;;;27.80;48.10;;;;;;5091407;28;20016;-82
2023/07/15 11:41:38;;;;;;;8.35;2.30;;;28.50;47.70;;;;;;5106747;28;20174;-82
2023/07/15 11:44:10;;;;;;;6.97;2.35;;;28.80;46.20;;;;;;5106500;28;20538;-82
2023/07/15 11:46:37;;;;;;;10.10;2.58;;;28.80;44.90;;;;;;5101827;28;20036;-81
2023/07/15 11:49:03;;;;;;;12.93;2.88;;;29.30;47.00;;;;;;5093144;28;20135;-84
2023/07/15 11:51:34;;;;;;;12.50;2.53;;;29.50;45.90;;;;;;5093645;28;20106;-82
2023/07/15 11:54:00;;;;;;;10.35;2.35;;;29.10;45.00;;;;;;5093531;28;20032;-82
2023/07/15 11:56:48;;;;;;;11.68;3.20;;;29.50;45.10;;;;;;5077995;28;20032;-83
2023/07/15 11:59:32;;;;;;;11.05;2.70;;;29.40;45.40;;;;;;5087215;28;20368;-83
2023/07/15 12:01:59;;;;;;;10.00;2.67;;;28.40;45.10;;;;;;5087795;28;20042;-82
2023/07/15 12:04:28;;;;;;;6.40;2.20;;;27.60;47.00;;;;;;5093870;22;20098;-80
2023/07/15 12:06:54;;;;;;;7.40;2.25;;;27.10;48.00;;;;;;5071021;28;20032;-81
2023/07/15 12:09:21;;;;;;;8.98;2.80;;;27.90;47.00;;;;;;5071143;28;20111;-81
2023/07/15 12:11:48;;;;;;;11.60;2.65;;;28.80;47.80;;;;;;5071108;28;20412;-80
2023/07/15 12:14:15;;;;;;;9.95;2.20;;;29.30;43.30;;;;;;5073082;28;20020;-81
2023/07/15 12:16:42;;;;;;;11.68;2.53;;;29.10;44.30;;;;;;5071491;28;20118;-81
2023/07/15 12:19:10;;;;;;;9.32;2.30;;;29.00;44.50;;;;;;5073309;28;20028;-81
2023/07/15 12:21:37;;;;;;;8.60;2.60;;;28.80;44.10;;;;;;5065822;28;20427;-81
2023/07/15 12:24:02;;;;;;;8.98;2.88;;;27.40;44.60;;;;;;5052132;28;20043;-83
2023/07/15 12:26:28;;;;;;;14.07;2.60;;;27.10;48.00;;;;;;5068697;28;20456;-88
2023/07/15 12:28:54;;;;;;;9.52;2.78;;;26.90;47.80;;;;;;5066856;28;20052;-81
2023/07/15 12:31:21;;;;;;;22.55;4.55;;;26.50;48.20;;;;;;5067362;28;20099;-82
2023/07/15 12:33:47;;;;;;;10.75;3.17;;;26.90;51.50;;;;;;5066699;28;20020;-82
2023/07/15 12:36:14;;;;;;;9.35;2.88;;;27.70;48.90;;;;;;5068053;28;20546;-82
2023/07/15 12:38:41;;;;;;;9.13;2.30;;;27.60;47.40;;;;;;5067167;28;20024;-84
2023/07/15 12:41:08;;;;;;;12.70;2.72;;;28.60;48.30;;;;;;5052195;28;20683;-84
2023/07/15 12:43:34;;;;;;;9.95;2.60;;;29.30;45.40;;;;;;5065910;28;20021;-82
2023/07/15 12:46:01;;;;;;;11.02;2.75;;;29.50;45.60;;;;;;5052168;28;20051;-83
2023/07/15 12:48:27;;;;;;;9.80;2.75;;;29.20;44.90;;;;;;5065591;28;20461;-82
2023/07/15 12:50:53;;;;;;;11.27;2.60;;;28.40;44.70;;;;;;5067570;28;20039;-83
2023/07/15 12:53:20;;;;;;;10.75;2.95;;;27.20;47.90;;;;;;5067915;28;20021;-79
2023/07/15 12:55:46;;;;;;;10.48;2.55;;;26.20;50.60;;;;;;5071711;28;20036;-82
2023/07/15 12:58:13;;;;;;;13.23;2.33;;;25.30;52.10;;;;;;5069295;28;20028;-80
2023/07/15 13:00:38;;;;;;;10.85;3.00;;;24.70;55.80;;;;;;5072133;28;20028;-82
2023/07/15 13:05:37;;;;;;;14.23;2.97;;;25.60;54.10;;;;;;5021131;28;20037;-85
2023/07/15 13:08:03;;;;;;;16.73;3.17;;;25.40;53.00;;;;;;5023770;28;20028;-86
2023/07/15 13:10:29;;;;;;;14.68;2.55;;;25.50;52.90;;;;;;5030681;28;20040;-87
2023/07/15 13:12:56;;;;;;;14.30;2.85;;;25.60;53.50;;;;;;5005534;28;20394;-86
2023/07/15 13:15:21;;;;;;;11.73;2.88;;;25.60;53.30;;;;;;5030294;28;20029;-84
2023/07/15 13:17:47;;;;;;;15.85;3.08;;;25.60;52.80;;;;;;5031505;28;20044;-86
2023/07/15 13:20:13;;;;;;;9.48;2.22;;;26.00;52.20;;;;;;5010643;28;20017;-84
2023/07/15 13:22:40;;;;;;;15.95;2.95;;;25.90;51.60;;;;;;5030487;28;20033;-86
2023/07/15 13:25:07;;;;;;;8.93;2.38;;;25.60;52.70;;;;;;5013224;28;20084;-84
2023/07/15 13:27:35;;;;;;;7.63;2.22;;;25.80;52.80;;;;;;5024560;28;20045;-83
2023/07/15 13:30:01;;;;;;;10.57;1.58;;;26.30;53.20;;;;;;5030910;28;20014;-88
2023/07/15 13:32:27;;;;;;;7.32;2.58;;;25.80;48.00;;;;;;5010300;28;20030;-84
2023/07/15 13:34:53;;;;;;;9.02;2.13;;;25.60;49.00;;;;;;5036209;28;20112;-83
2023/07/15 13:37:19;;;;;;;10.10;1.75;;;25.90;50.70;;;;;;5030397;28;20446;-88
2023/07/15 13:39:45;;;;;;;10.70;2.28;;;26.00;50.60;;;;;;5030468;28;20025;-84
2023/07/15 13:42:14;;;;;;;11.23;3.38;;;26.10;50.10;;;;;;5026975;28;20014;-84
2023/07/15 13:44:40;;;;;;;9.20;1.60;;;26.00;49.90;;;;;;5023821;28;20020;-84
2023/07/15 13:47:06;;;;;;;9.77;1.80;;;26.10;48.60;;;;;;5027804;28;20029;-85
2023/07/15 13:49:32;;;;;;;12.98;2.50;;;26.10;47.40;;;;;;5026225;28;20028;-83
2023/07/15 13:51:59;;;;;;;8.93;2.45;;;26.60;49.70;;;;;;5029839;28;20045;-82
2023/07/15 13:54:25;;;;;;;17.23;2.97;;;26.50;48.50;;;;;;5010686;28;20109;-87
2023/07/15 13:56:52;;;;;;;11.45;2.38;;;26.70;49.40;;;;;;5011351;28;20368;-85
2023/07/15 13:59:18;;;;;;;7.05;2.00;;;26.80;47.60;;;;;;5006399;28;20505;-83
2023/07/15 14:01:45;;;;;;;14.15;2.22;;;26.70;48.40;;;;;;5012486;28;20385;-81
2023/07/15 14:04:11;;;;;;;12.75;2.40;;;26.30;48.00;;;;;;5057051;22;20489;-81
2023/07/15 14:06:40;;;;;;;7.90;2.67;;;26.30;48.40;;;;;;5050100;28;20024;-80
2023/07/15 14:09:06;;;;;;;14.45;2.25;;;26.20;47.50;;;;;;5051368;28;20562;-80
2023/07/15 14:11:31;;;;;;;11.55;2.50;;;26.30;47.40;;;;;;5049682;28;20032;-80
2023/07/15 14:13:57;;;;;;;15.73;2.60;;;26.50;47.80;;;;;;5050719;28;20021;-80
2023/07/15 14:16:23;;;;;;;9.68;2.40;;;26.10;48.10;;;;;;5049375;28;20029;-80
2023/07/15 14:18:49;;;;;;;6.95;2.00;;;25.80;48.70;;;;;;5050991;28;20474;-81
2023/07/15 14:21:15;;;;;;;9.18;1.88;;;25.80;47.90;;;;;;5049056;28;20025;-80
2023/07/15 14:23:40;;;;;;;10.18;2.00;;;25.00;48.00;;;;;;5050569;28;20013;-81
2023/07/15 14:26:06;;;;;;;10.32;2.88;;;25.00;51.30;;;;;;5050085;28;20021;-80
2023/07/15 14:28:32;;;;;;;17.48;3.40;;;24.90;51.90;;;;;;5051366;28;20098;-79
2023/07/15 14:30:57;;;;;;;12.40;3.15;;;24.80;52.50;;;;;;5050270;28;20017;-81
2023/07/15 14:33:23;;;;;;;17.15;3.25;;;23.90;55.50;;;;;;5051495;28;20495;-80
2023/07/15 14:35:49;;;;;;;17.33;3.00;;;23.40;57.40;;;;;;5051343;28;20037;-83
2023/07/15 14:38:15;;;;;;;16.30;3.30;;;22.60;57.80;;;;;;5050876;28;20087;-80
2023/07/15 14:40:40;;;;;;;20.15;3.20;;;22.00;61.40;;;;;;5048967;28;20469;-80
2023/07/15 14:43:06;;;;;;;12.23;2.85;;;21.90;61.90;;;;;;5050621;28;20100;-79
2023/07/15 14:45:32;;;;;;;21.40;3.10;;;22.20;61.40;;;;;;5051133;28;20074;-79
2023/07/15 14:47:57;;;;;;;9.85;2.90;;;22.40;60.90;;;;;;5051244;28;20060;-81
2023/07/15 14:50:23;;;;;;;15.95;4.25;;;22.40;59.90;;;;;;5051195;28;20603;-81
2023/07/15 14:52:49;;;;;;;19.67;3.83;;;21.40;63.30;;;;;;5051514;28;20029;-81
2023/07/15 14:55:15;;;;;;;22.10;4.03;;;21.20;64.50;;;;;;5051045;28;20039;-80
2023/07/15 14:57:42;;;;;;;16.92;2.92;;;21.00;66.40;;;;;;5049795;28;20538;-80
2023/07/15 15:00:08;;;;;;;20.23;3.40;;;21.20;63.90;;;;;;5051150;28;20021;-80
2023/07/15 15:02:34;;;;;;;15.85;3.65;;;21.60;63.60;;;;;;5051269;28;20112;-79
2023/07/15 15:05:00;;;;;;;16.83;3.63;;;21.70;63.80;;;;;;5068711;22;20389;-80
2023/07/15 15:07:25;;;;;;;18.85;3.75;;;22.40;64.00;;;;;;5049963;28;20018;-81
2023/07/15 15:09:51;;;;;;;16.83;3.55;;;22.70;60.70;;;;;;5031226;28;20688;-82
2023/07/15 15:12:17;;;;;;;18.55;3.63;;;22.40;61.50;;;;;;5031027;28;20032;-82
2023/07/15 15:14:42;;;;;;;18.92;4.15;;;22.40;63.10;;;;;;5030858;28;20029;-82
2023/07/15 15:17:08;;;;;;;16.90;4.25;;;22.50;63.60;;;;;;5031041;28;20033;-81
2023/07/15 15:19:33;;;;;;;17.83;4.78;;;22.30;61.00;;;;;;5030912;28;20022;-81
2023/07/15 15:21:59;;;;;;;15.13;3.85;;;22.10;62.20;;;;;;5032329;28;20027;-82
2023/07/15 15:24:29;;;;;;;24.35;4.43;;;22.40;62.90;;;;;;5034871;28;20075;-81
2023/07/15 15:26:58;;;;;;;19.77;4.93;;;22.70;61.80;;;;;;5043551;28;20017;-82
2023/07/15 15:29:25;;;;;;;23.48;5.45;;;22.70;61.00;;;;;;5034629;28;20075;-82
2023/07/15 15:31:51;;;;;;;24.80;4.53;;;22.70;60.40;;;;;;5034494;28;20018;-81
2023/07/15 15:34:17;;;;;;;14.15;3.45;;;22.30;62.10;;;;;;5046437;28;20063;-81
2023/07/15 15:36:42;;;;;;;16.52;3.92;;;22.30;60.60;;;;;;5039552;28;20061;-81
2023/07/15 15:39:10;;;;;;;15.85;4.70;;;21.40;64.40;;;;;;5034158;28;20017;-81
2023/07/15 15:41:36;;;;;;;20.75;5.18;;;21.50;64.70;;;;;;5034104;28;20647;-81
2023/07/15 15:44:05;;;;;;;21.83;5.65;;;22.00;65.40;;;;;;5034204;28;20030;-81
2023/07/15 15:46:31;;;;;;;19.13;4.43;;;22.60;64.10;;;;;;5041662;28;20458;-82
2023/07/15 15:48:57;;;;;;;19.20;4.35;;;22.70;61.00;;;;;;5034111;28;20543;-81
2023/07/15 15:51:23;;;;;;;16.77;4.70;;;22.80;62.80;;;;;;5034210;28;20462;-82
2023/07/15 15:53:56;;;;;;;13.48;3.80;;;22.30;63.00;;;;;;5034170;28;20025;-80
2023/07/15 15:56:23;;;;;;;16.15;4.47;;;21.80;63.40;;;;;;5033775;28;20105;-82
2023/07/15 15:58:48;;;;;;;19.80;4.78;;;21.80;65.70;;;;;;5033685;28;20064;-83
2023/07/15 16:01:14;;;;;;;16.27;4.95;;;21.90;65.90;;;;;;5033832;28;20052;-82
2023/07/15 16:03:40;;;;;;;29.35;5.30;;;22.20;64.70;;;;;;5051028;22;21017;-80
2023/07/15 16:06:06;;;;;;;16.70;4.05;;;21.80;62.80;;;;;;5040811;28;20036;-80
2023/07/15 16:08:32;;;;;;;24.90;5.57;;;21.50;64.20;;;;;;5053118;28;20021;-80
2023/07/15 16:10:58;;;;;;;33.80;6.20;;;21.30;65.50;;;;;;5053084;28;20116;-79
2023/07/15 16:13:24;;;;;;;17.08;5.10;;;21.20;67.50;;;;;;5053170;28;20025;-79
2023/07/15 16:15:50;;;;;;;17.50;5.22;;;20.80;65.70;;;;;;5052820;28;20024;-79
2023/07/15 16:18:17;;;;;;;23.92;5.50;;;20.60;68.10;;;;;;5052963;28;20025;-80
2023/07/15 16:20:43;;;;;;;21.13;5.25;;;20.80;68.60;;;;;;5052429;28;20025;-79
2023/07/15 16:23:08;;;;;;;20.10;5.65;;;20.80;66.00;;;;;;5052659;28;20040;-81
2023/07/15 16:25:34;;;;;;;20.25;5.40;;;20.90;67.60;;;;;;5053131;28;20021;-79
2023/07/15 16:28:00;;;;;;;28.27;6.60;;;20.80;67.30;;;;;;5052554;28;20021;-79
2023/07/15 16:30:26;;;;;;;22.80;5.90;;;20.90;67.30;;;;;;5052574;28;20021;-80
2023/07/15 16:32:51;;;;;;;16.33;5.65;;;20.70;66.50;;;;;;5052686;28;20396;-80
2023/07/15 16:35:17;;;;;;;20.98;5.97;;;20.50;67.90;;;;;;5056464;28;20501;-79
2023/07/15 16:37:42;;;;;;;17.40;5.50;;;20.40;69.40;;;;;;5052397;28;20029;-81
2023/07/15 16:40:09;;;;;;;22.10;5.53;;;20.30;67.30;;;;;;5052873;28;20564;-78
2023/07/15 16:42:35;;;;;;;19.27;5.28;;;20.20;67.30;;;;;;5052627;28;20465;-80
2023/07/15 16:45:01;;;;;;;29.08;6.53;;;20.00;66.80;;;;;;5052363;28;20095;-79
2023/07/15 16:47:26;;;;;;;21.38;5.78;;;20.00;69.30;;;;;;5052102;28;20028;-79
2023/07/15 16:49:52;;;;;;;16.40;5.43;;;20.10;69.00;;;;;;5051179;28;20096;-80
2023/07/15 16:52:18;;;;;;;24.45;7.57;;;19.90;69.70;;;;;;5051214;28;20025;-79
2023/07/15 16:54:43;;;;;;;16.98;6.15;;;20.10;69.30;;;;;;5047699;28;20029;-82
2023/07/15 16:57:09;;;;;;;17.77;5.75;;;20.30;70.30;;;;;;5046884;28;20037;-81
2023/07/15 16:59:35;;;;;;;24.13;6.88;;;19.90;67.70;;;;;;5047354;28;20025;-80
2023/07/15 17:02:01;;;;;;;24.25;6.28;;;19.80;70.00;;;;;;5047267;28;20155;-79
2023/07/15 17:04:26;;;;;;;26.17;6.88;;;19.60;70.00;;;;;;5046567;28;20154;-80
2023/07/15 17:06:52;;;;;;;19.83;6.70;;;19.70;71.90;;;;;;5048711;28;20052;-81
2023/07/15 17:09:18;;;;;;;32.50;7.53;;;19.80;72.00;;;;;;5047968;28;20031;-82
2023/07/15 17:11:44;;;;;;;20.67;6.70;;;19.60;72.50;;;;;;5032309;28;20024;-80
2023/07/15 17:14:09;;;;;;;25.75;7.45;;;19.50;71.80;;;;;;5049072;28;20397;-81
2023/07/15 17:16:35;;;;;;;23.20;6.88;;;19.30;71.30;;;;;;5046505;28;20496;-80
2023/07/15 17:19:00;;;;;;;26.98;9.20;;;19.20;73.70;;;;;;5049302;28;20025;-80
2023/07/15 17:21:27;;;;;;;29.58;6.72;;;19.20;72.20;;;;;;5051344;28;20353;-78
2023/07/15 17:23:52;;;;;;;40.33;14.55;;;19.40;71.40;;;;;;5051236;28;20105;-81
2023/07/15 17:26:18;;;;;;;33.20;15.63;;;19.40;70.50;;;;;;5051558;28;20094;-78
2023/07/15 17:28:44;;;;;;;23.65;8.52;;;19.40;71.40;;;;;;5050739;28;20508;-81
2023/07/15 17:31:09;;;;;;;35.55;12.20;;;19.40;70.70;;;;;;5051345;28;20024;-81
2023/07/15 17:33:35;;;;;;;17.95;6.88;;;19.20;71.00;;;;;;5063441;22;20017;-82
2023/07/15 17:36:00;;;;;;;22.65;6.97;;;19.10;70.80;;;;;;5035264;28;20044;-82
2023/07/15 17:38:26;;;;;;;20.05;6.53;;;19.10;71.60;;;;;;5031870;28;20014;-82
2023/07/15 17:40:51;;;;;;;28.02;5.88;;;19.10;71.90;;;;;;5031710;28;20072;-81
2023/07/15 17:43:17;;;;;;;24.55;6.18;;;19.00;71.80;;;;;;5031674;28;20493;-83
2023/07/15 17:45:43;;;;;;;21.00;7.45;;;18.90;72.20;;;;;;5031240;28;20026;-83
2023/07/15 17:48:10;;;;;;;22.77;6.88;;;18.90;72.90;;;;;;5031814;28;20100;-83
2023/07/15 17:50:35;;;;;;;26.25;7.78;;;18.90;72.40;;;;;;5031784;28;20035;-84
2023/07/15 17:53:01;;;;;;;18.98;6.00;;;18.80;71.50;;;;;;5031688;28;20025;-82
2023/07/15 17:55:27;;;;;;;23.63;7.55;;;18.80;70.80;;;;;;5031147;28;20071;-82
2023/07/15 17:57:54;;;;;;;17.88;6.95;;;18.70;71.00;;;;;;5030671;28;20060;-82
2023/07/15 18:00:20;;;;;;;19.70;8.15;;;18.70;72.50;;;;;;5030082;28;20033;-81
2023/07/15 18:02:48;;;;;;;23.02;7.90;;;18.70;72.40;;;;;;5031588;28;20041;-84
2023/07/15 18:05:14;;;;;;;25.52;7.38;;;18.70;73.60;;;;;;5034978;28;20021;-81
2023/07/15 18:07:40;;;;;;;24.25;7.60;;;18.60;73.50;;;;;;5030700;28;20032;-82
2023/07/15 18:10:06;;;;;;;26.35;8.00;;;18.60;74.20;;;;;;5033707;28;20021;-82
2023/07/15 18:12:32;;;;;;;18.90;7.50;;;18.50;75.00;;;;;;5032752;28;20017;-83
2023/07/15 18:14:57;;;;;;;21.45;7.32;;;18.50;74.80;;;;;;5031127;28;20086;-81
2023/07/15 18:17:24;;;;;;;29.83;8.60;;;18.40;75.70;;;;;;5031569;28;20035;-82
2023/07/15 18:19:50;;;;;;;27.17;8.27;;;18.40;76.90;;;;;;5030752;28;20068;-82
2023/07/15 18:22:17;;;;;;;25.05;7.38;;;18.40;76.40;;;;;;5028416;28;20025;-83
2023/07/15 18:24:43;;;;;;;37.97;9.27;;;18.40;76.70;;;;;;5026949;28;20075;-84
2023/07/15 18:27:09;;;;;;;19.75;6.75;;;18.30;77.20;;;;;;5023681;28;20021;-84
2023/07/15 18:29:34;;;;;;;28.10;8.57;;;18.20;77.00;;;;;;5028302;28;20484;-83
2023/07/15 18:32:00;;;;;;;18.48;7.70;;;18.10;77.70;;;;;;5027562;28;20025;-82
2023/07/15 18:34:25;;;;;;;33.08;8.57;;;18.10;76.40;;;;;;5051574;22;20151;-85
2023/07/15 18:36:51;;;;;;;28.85;8.20;;;18.00;76.50;;;;;;5057466;28;20033;-84
2023/07/15 18:39:17;;;;;;;26.13;8.68;;;18.10;77.30;;;;;;5029210;28;20028;-81
2023/07/15 18:41:45;;;;;;;25.73;8.32;;;18.10;77.00;;;;;;5029155;28;20035;-85
2023/07/15 18:44:10;;;;;;;36.38;9.75;;;18.10;76.90;;;;;;5047128;28;20017;-82
2023/07/15 18:46:36;;;;;;;25.92;9.10;;;18.10;77.40;;;;;;5046915;28;20179;-82
2023/07/15 18:49:02;;;;;;;19.52;7.78;;;18.10;78.30;;;;;;5046378;28;20692;-83
2023/07/15 18:51:27;;;;;;;28.80;8.30;;;18.00;78.30;;;;;;5047170;28;20393;-81
2023/07/15 18:53:54;;;;;;;23.50;7.63;;;18.00;79.20;;;;;;5047613;28;20029;-83
2023/07/15 18:56:20;;;;;;;29.42;8.75;;;17.90;79.50;;;;;;5047693;28;20029;-81
2023/07/15 18:58:45;;;;;;;21.75;6.25;;;17.90;79.30;;;;;;5049918;28;20385;-81
2023/07/15 19:01:11;;;;;;;28.17;7.72;;;17.80;78.80;;;;;;5050267;28;20029;-81
2023/07/15 19:03:37;;;;;;;21.08;7.50;;;17.80;79.50;;;;;;5031897;28;20021;-81
2023/07/15 19:06:03;;;;;;;18.90;7.20;;;17.70;81.60;;;;;;5051884;28;20538;-81
2023/07/15 19:08:30;;;;;;;25.33;6.15;;;17.60;82.10;;;;;;5050675;28;20028;-83
2023/07/15 19:10:55;;;;;;;16.85;6.60;;;17.60;81.00;;;;;;5050890;28;20025;-83
2023/07/15 19:13:21;;;;;;;24.52;7.70;;;17.50;81.70;;;;;;5049255;28;20028;-84
2023/07/15 19:15:47;;;;;;;19.00;6.53;;;17.50;83.10;;;;;;5049601;28;20041;-84
2023/07/15 19:18:12;;;;;;;33.33;8.38;;;17.50;82.40;;;;;;5050042;28;20509;-81
2023/07/15 19:20:38;;;;;;;23.02;8.45;;;17.40;83.80;;;;;;5035955;28;20036;-82
2023/07/15 19:23:03;;;;;;;25.80;8.70;;;17.30;84.00;;;;;;5050452;28;20021;-81
2023/07/15 19:25:29;;;;;;;22.90;7.18;;;17.30;83.50;;;;;;5049575;28;20048;-81
2023/07/15 19:27:55;;;;;;;28.95;8.02;;;17.30;82.90;;;;;;5049579;28;20025;-79
2023/07/15 19:30:20;;;;;;;16.83;7.55;;;17.30;83.70;;;;;;5050203;28;20056;-81
2023/07/15 19:32:46;;;;;;;19.02;7.45;;;17.30;85.00;;;;;;5032380;28;20025;-84
2023/07/15 19:35:12;;;;;;;30.05;8.57;;;17.30;85.10;;;;;;5071701;22;20053;-82
2023/07/15 19:37:37;;;;;;;20.73;7.78;;;17.30;85.40;;;;;;5052840;28;20029;-83
2023/07/15 19:40:04;;;;;;;38.58;8.35;;;17.30;86.30;;;;;;5052697;28;20017;-83
2023/07/15 19:42:29;;;;;;;27.05;8.32;;;17.30;86.30;;;;;;5051538;28;20029;-82
2023/07/15 19:44:55;;;;;;;25.55;7.65;;;17.40;87.10;;;;;;5054298;28;20095;-82
2023/07/15 19:47:21;;;;;;;32.65;9.13;;;17.40;86.70;;;;;;5054140;28;20025;-82
2023/07/15 19:49:46;;;;;;;27.27;8.48;;;17.50;86.90;;;;;;5054078;28;20354;-84
2023/07/15 19:52:12;;;;;;;25.90;7.68;;;17.50;87.20;;;;;;5052767;28;20053;-82
2023/07/15 19:54:38;;;;;;;20.02;8.13;;;17.50;87.50;;;;;;5058241;28;20024;-83
2023/07/15 19:57:04;;;;;;;23.77;7.50;;;17.40;87.80;;;;;;5056607;28;20485;-83
2023/07/15 19:59:30;;;;;;;35.17;10.00;;;17.40;87.90;;;;;;5054136;28;20013;-83
2023/07/15 20:01:56;;;;;;;23.98;8.32;;;17.40;88.90;;;;;;5053927;28;20373;-84
2023/07/15 20:04:23;;;;;;;22.85;8.48;;;17.40;89.40;;;;;;5053422;28;20092;-83
2023/07/15 20:06:54;;;;;;;25.23;7.72;;;17.40;90.10;;;;;;5053623;28;20477;-81
2023/07/15 20:09:23;;;;;;;25.73;8.48;;;17.40;90.10;;;;;;5046707;28;20021;-82
2023/07/15 20:11:50;;;;;;;33.42;8.77;;;17.40;90.30;;;;;;5053867;28;20096;-82
2023/07/15 20:14:16;;;;;;;32.10;8.77;;;17.30;90.60;;;;;;5053824;28;20066;-82
2023/07/15 20:16:42;;;;;;;31.50;8.35;;;17.30;90.70;;;;;;5053722;28;20435;-82
2023/07/15 20:19:08;;;;;;;30.27;7.40;;;17.30;91.00;;;;;;5053412;28;20104;-81
2023/07/15 20:21:33;;;;;;;23.95;6.75;;;17.30;90.90;;;;;;5053662;28;20058;-84
2023/07/15 20:23:59;;;;;;;33.15;9.05;;;17.30;90.50;;;;;;5053671;28;20155;-82
2023/07/15 20:26:25;;;;;;;24.95;7.28;;;17.30;91.20;;;;;;5053464;28;20025;-80
2023/07/15 20:28:51;;;;;;;18.88;5.75;;;17.20;91.40;;;;;;5053230;28;20025;-80
2023/07/15 20:31:17;;;;;;;25.25;7.30;;;17.20;91.40;;;;;;5053646;28;20471;-84
2023/07/15 20:33:42;;;;;;;25.00;8.60;;;17.20;91.50;;;;;;5060045;22;20081;-80
2023/07/15 20:36:08;;;;;;;27.73;6.88;;;17.20;91.80;;;;;;5039856;28;20044;-79
2023/07/15 20:38:35;;;;;;;27.38;6.95;;;17.20;91.90;;;;;;5044802;28;20029;-83
2023/07/15 20:41:01;;;;;;;22.08;6.95;;;17.20;92.20;;;;;;5048342;28;20049;-80
2023/07/15 20:43:27;;;;;;;36.20;8.23;;;17.20;92.30;;;;;;5063231;28;20057;-79
2023/07/15 20:45:52;;;;;;;35.63;8.65;;;17.20;92.30;;;;;;5048007;28;20635;-81
2023/07/15 20:48:18;;;;;;;33.72;7.43;;;17.10;92.50;;;;;;5063495;28;20071;-78
2023/07/15 20:50:44;;;;;;;24.40;6.78;;;17.10;92.70;;;;;;5048215;28;20021;-80
2023/07/15 20:53:10;;;;;;;28.60;6.75;;;17.20;92.70;;;;;;5048585;28;20025;-80
2023/07/15 20:55:39;;;;;;;31.10;8.32;;;17.20;92.80;;;;;;5048169;28;20064;-80
2023/07/15 20:58:05;;;;;;;32.97;8.90;;;17.10;93.00;;;;;;5047721;28;20020;-79
2023/07/15 21:00:30;;;;;;;30.45;8.25;;;17.10;93.20;;;;;;5048244;28;20040;-80
2023/07/15 21:02:56;;;;;;;26.58;7.57;;;17.10;93.50;;;;;;5046325;28;20025;-80
2023/07/15 21:05:22;;;;;;;35.42;8.10;;;17.20;93.40;;;;;;5050616;28;20017;-79
2023/07/15 21:07:47;;;;;;;35.67;8.45;;;17.10;93.70;;;;;;5047560;28;20036;-80
2023/07/15 21:10:13;;;;;;;28.25;7.72;;;17.10;93.90;;;;;;5048490;28;20552;-81
2023/07/15 21:12:39;;;;;;;33.08;7.40;;;17.10;94.10;;;;;;5047900;28;20100;-81
2023/07/15 21:15:05;;;;;;;26.90;7.05;;;17.10;94.10;;;;;;5054147;28;20044;-81
2023/07/15 21:17:31;;;;;;;23.25;6.18;;;17.10;93.80;;;;;;5049820;28;20078;-83
2023/07/15 21:19:56;;;;;;;32.15;6.85;;;17.10;94.00;;;;;;5049932;28;20016;-82
2023/07/15 21:22:22;;;;;;;28.52;6.15;;;17.10;94.30;;;;;;5050094;28;20099;-81
2023/07/15 21:24:48;;;;;;;29.02;6.25;;;17.10;94.40;;;;;;5051210;28;20025;-81
2023/07/15 21:27:13;;;;;;;35.08;9.38;;;17.10;94.40;;;;;;5051365;28;20048;-81
2023/07/15 21:29:39;;;;;;;25.92;7.45;;;17.00;94.50;;;;;;5050946;28;20684;-82
2023/07/15 21:32:06;;;;;;;28.05;6.75;;;17.10;94.60;;;;;;5050917;28;20615;-80
2023/07/15 21:34:32;;;;;;;28.15;7.35;;;17.10;94.70;;;;;;5065073;22;20052;-83
2023/07/15 21:36:58;;;;;;;38.35;9.13;;;17.10;94.70;;;;;;5050507;28;20033;-82
2023/07/15 21:39:23;;;;;;;19.23;5.13;;;17.00;95.40;;;;;;5050865;28;20370;-81
2023/07/15 21:41:49;;;;;;;39.15;7.03;;;16.90;95.60;;;;;;5050804;28;20029;-81
2023/07/15 21:44:15;;;;;;;28.80;6.78;;;16.80;96.00;;;;;;5050741;28;20505;-82
2023/07/15 21:46:40;;;;;;;38.83;9.75;;;16.70;96.50;;;;;;5050743;28;20388;-80
2023/07/15 21:49:06;;;;;;;34.80;8.07;;;16.70;96.90;;;;;;5050306;28;20031;-82
2023/07/15 21:51:32;;;;;;;24.88;7.50;;;16.70;97.10;;;;;;5050564;28;20021;-82
2023/07/15 21:53:58;;;;;;;42.67;8.40;;;16.70;97.90;;;;;;5030687;28;20032;-78
2023/07/15 21:56:24;;;;;;;26.33;6.68;;;16.50;99.20;;;;;;5050174;28;20037;-80
2023/07/15 21:58:50;;;;;;;23.58;7.43;;;16.30;99.20;;;;;;5050491;28;20024;-80
2023/07/15 22:01:15;;;;;;;26.95;7.50;;;16.20;99.70;;;;;;5050559;28;20457;-80
2023/07/15 22:03:41;;;;;;;35.22;7.60;;;16.10;99.90;;;;;;5051009;28;20024;-82
2023/07/15 22:06:07;;;;;;;28.85;7.53;;;16.10;99.80;;;;;;5051379;28;20028;-79
2023/07/15 22:08:33;;;;;;;32.60;6.53;;;16.10;99.30;;;;;;5050760;28;20005;-82
2023/07/15 22:10:59;;;;;;;40.75;8.75;;;16.10;99.90;;;;;;5050188;28;20032;-81
2023/07/15 22:13:25;;;;;;;35.72;9.75;;;16.10;99.70;;;;;;5049136;28;20013;-80
2023/07/15 22:15:50;;;;;;;44.88;7.72;;;16.20;99.50;;;;;;5050726;28;20033;-81
2023/07/15 22:18:16;;;;;;;27.65;7.95;;;16.20;99.40;;;;;;5050625;28;20025;-80
2023/07/15 22:20:43;;;;;;;22.67;6.05;;;16.30;98.60;;;;;;5049430;28;20029;-81
2023/07/15 22:23:08;;;;;;;30.13;7.32;;;16.30;98.40;;;;;;5048198;28;20165;-81
2023/07/15 22:25:34;;;;;;;31.55;7.43;;;16.30;98.40;;;;;;5049973;28;20485;-81
2023/07/15 22:28:00;;;;;;;27.83;6.95;;;16.40;98.50;;;;;;5050745;28;20086;-82
2023/07/15 22:30:26;;;;;;;38.58;7.82;;;16.40;98.30;;;;;;5050830;28;20466;-82
2023/07/15 22:32:52;;;;;;;36.45;6.47;;;16.40;98.20;;;;;;5048890;28;20021;-81
2023/07/15 22:35:17;;;;;;;26.77;5.68;;;16.40;97.90;;;;;;5067241;22;20548;-82
2023/07/15 22:37:43;;;;;;;22.05;6.07;;;16.40;97.90;;;;;;5055477;28;20031;-83
2023/07/15 22:40:09;;;;;;;29.50;5.72;;;16.50;97.20;;;;;;5049745;28;20013;-80
2023/07/15 22:42:35;;;;;;;19.65;4.50;;;16.50;97.20;;;;;;5050359;28;20056;-82
2023/07/15 22:45:00;;;;;;;28.45;5.65;;;16.50;97.20;;;;;;5050630;28;20053;-81
2023/07/15 22:47:26;;;;;;;26.90;5.20;;;16.60;96.80;;;;;;5050323;28;20021;-80
2023/07/15 22:49:52;;;;;;;25.08;5.57;;;16.60;96.90;;;;;;5050002;28;20029;-80
2023/07/15 22:52:17;;;;;;;21.42;5.18;;;16.60;97.20;;;;;;5050481;28;20021;-82
2023/07/15 22:54:43;;;;;;;19.20;5.22;;;16.50;97.10;;;;;;5050011;28;20025;-82
2023/07/15 22:57:09;;;;;;;24.35;4.78;;;16.50;96.80;;;;;;5032515;28;20124;-82
2023/07/15 22:59:35;;;;;;;26.05;3.90;;;16.50;96.50;;;;;;5050275;28;20017;-83
2023/07/15 23:02:02;;;;;;;19.58;3.83;;;16.50;96.30;;;;;;5050382;28;20079;-80
2023/07/15 23:04:27;;;;;;;22.65;5.95;;;16.50;96.30;;;;;;5052601;28;20029;-81
2023/07/15 23:06:55;;;;;;;19.35;4.53;;;16.60;96.40;;;;;;5049960;28;20385;-81
2023/07/15 23:09:22;;;;;;;14.63;4.32;;;16.60;96.90;;;;;;5049919;28;20497;-82
2023/07/15 23:11:47;;;;;;;22.13;3.85;;;16.60;96.10;;;;;;5049854;28;20033;-79